sensor_id;sensor_type;location;lat;lon;timestamp;pressure;altitude;pressure_sealevel;temperature;humidity
64908;BME280;64365;-1.756;110.040;2023-02-22T00:00:19;101528.75;;;8.48;84.85
64908;BME280;64365;-1.756;110.040;2023-02-22T00:02:56;101534.63;;;8.54;84.90
64908;BME280;64365;-1.756;110.040;2023-02-22T00:05:25;101530.97;;;8.46;85.19
64908;BME280;64365;-1.756;110.040;2023-02-22T00:07:53;101532.88;;;8.58;85.37
64908;BME280;64365;-1.756;110.040;2023-02-22T00:10:23;101517.78;;;8.37;85.74
64908;BME280;64365;-1.756;110.040;2023-02-22T00:12:51;101522.22;;;8.46;85.51
64908;BME280;64365;-1.756;110.040;2023-02-22T00:15:20;101526.63;;;8.41;85.08
64908;BME280;64365;-1.756;110.040;2023-02-22T00:17:46;101512.59;;;8.29;85.11
64908;BME280;64365;-1.756;110.040;2023-02-22T00:20:15;101525.09;;;8.40;84.60
64908;BME280;64365;-1.756;110.040;2023-02-22T00:22:44;101524.16;;;8.24;85.29
64908;BME280;64365;-1.756;110.040;2023-02-22T00:25:12;101530.59;;;8.35;85.01
64908;BME280;64365;-1.756;110.040;2023-02-22T00:27:43;101531.03;;;8.37;85.15
64908;BME280;64365;-1.756;110.040;2023-02-22T00:30:13;101522.09;;;8.30;85.63
64908;BME280;64365;-1.756;110.040;2023-02-22T00:32:43;101514.81;;;8.26;85.30
64908;BME280;64365;-1.756;110.040;2023-02-22T00:35:10;101523.19;;;8.29;85.42
64908;BME280;64365;-1.756;110.040;2023-02-22T00:37:37;101525.53;;;8.30;85.95
64908;BME280;64365;-1.756;110.040;2023-02-22T00:40:07;101516.16;;;8.33;86.12
64908;BME280;64365;-1.756;110.040;2023-02-22T00:42:33;101521.09;;;8.34;85.70
64908;BME280;64365;-1.756;110.040;2023-02-22T00:45:02;101513.06;;;8.43;86.42
64908;BME280;64365;-1.756;110.040;2023-02-22T00:47:28;101513.84;;;8.43;85.79
64908;BME280;64365;-1.756;110.040;2023-02-22T00:49:55;101519.47;;;8.42;86.18
64908;BME280;64365;-1.756;110.040;2023-02-22T00:52:22;101503.25;;;8.43;86.39
64908;BME280;64365;-1.756;110.040;2023-02-22T00:54:48;101509.91;;;8.50;86.00
64908;BME280;64365;-1.756;110.040;2023-02-22T00:57:15;101498.84;;;8.48;85.57
64908;BME280;64365;-1.756;110.040;2023-02-22T00:59:43;101502.22;;;8.36;85.76
64908;BME280;64365;-1.756;110.040;2023-02-22T01:02:11;101499.69;;;8.27;85.42
64908;BME280;64365;-1.756;110.040;2023-02-22T01:04:38;101495.72;;;8.21;85.34
64908;BME280;64365;-1.756;110.040;2023-02-22T01:07:05;101487.88;;;8.24;85.68
64908;BME280;64365;-1.756;110.040;2023-02-22T01:09:31;101484.44;;;8.12;85.68
64908;BME280;64365;-1.756;110.040;2023-02-22T01:11:59;101479.72;;;8.17;85.42
64908;BME280;64365;-1.756;110.040;2023-02-22T01:14:27;101485.22;;;8.00;85.39
64908;BME280;64365;-1.756;110.040;2023-02-22T01:16:54;101488.63;;;8.00;85.86
64908;BME280;64365;-1.756;110.040;2023-02-22T01:19:22;101495.28;;;8.06;85.35
64908;BME280;64365;-1.756;110.040;2023-02-22T01:21:49;101488.75;;;8.04;85.38
64908;BME280;64365;-1.756;110.040;2023-02-22T01:24:17;101489.97;;;8.06;85.86
64908;BME280;64365;-1.756;110.040;2023-02-22T01:26:48;101478.59;;;8.06;87.45
64908;BME280;64365;-1.756;110.040;2023-02-22T01:29:17;101486.75;;;8.01;87.75
64908;BME280;64365;-1.756;110.040;2023-02-22T01:31:50;101484.75;;;7.98;87.15
64908;BME280;64365;-1.756;110.040;2023-02-22T01:34:17;101479.25;;;8.03;86.57
64908;BME280;64365;-1.756;110.040;2023-02-22T01:36:45;101487.28;;;7.94;87.09
64908;BME280;64365;-1.756;110.040;2023-02-22T01:39:12;101481.03;;;7.99;87.54
64908;BME280;64365;-1.756;110.040;2023-02-22T01:41:38;101485.31;;;8.03;87.89
64908;BME280;64365;-1.756;110.040;2023-02-22T01:44:19;101474.19;;;8.10;88.23
64908;BME280;64365;-1.756;110.040;2023-02-22T01:46:47;101473.53;;;8.13;87.48
64908;BME280;64365;-1.756;110.040;2023-02-22T01:49:13;101466.50;;;8.17;88.23
64908;BME280;64365;-1.756;110.040;2023-02-22T01:51:43;101465.81;;;8.20;87.78
64908;BME280;64365;-1.756;110.040;2023-02-22T01:54:15;101464.06;;;8.24;87.96
64908;BME280;64365;-1.756;110.040;2023-02-22T01:56:46;101451.78;;;8.20;87.01
64908;BME280;64365;-1.756;110.040;2023-02-22T01:59:16;101463.94;;;8.21;85.93
64908;BME280;64365;-1.756;110.040;2023-02-22T02:01:44;101455.88;;;8.05;87.02
64908;BME280;64365;-1.756;110.040;2023-02-22T02:04:16;101455.22;;;8.08;86.84
64908;BME280;64365;-1.756;110.040;2023-02-22T02:06:45;101447.91;;;8.05;87.59
64908;BME280;64365;-1.756;110.040;2023-02-22T02:09:19;101450.81;;;8.12;87.85
64908;BME280;64365;-1.756;110.040;2023-02-22T02:11:48;101450.59;;;8.17;87.54
64908;BME280;64365;-1.756;110.040;2023-02-22T02:14:15;101447.50;;;8.15;86.30
64908;BME280;64365;-1.756;110.040;2023-02-22T02:16:45;101441.75;;;8.13;86.33
64908;BME280;64365;-1.756;110.040;2023-02-22T02:19:20;101435.81;;;8.16;85.87
64908;BME280;64365;-1.756;110.040;2023-02-22T02:22:26;101443.41;;;8.18;86.93
64908;BME280;64365;-1.756;110.040;2023-02-22T02:25:18;101434.13;;;8.24;83.85
64908;BME280;64365;-1.756;110.040;2023-02-22T02:28:21;101430.72;;;8.11;84.60
64908;BME280;64365;-1.756;110.040;2023-02-22T02:31:05;101428.09;;;8.11;86.90
64908;BME280;64365;-1.756;110.040;2023-02-22T02:33:44;101426.75;;;8.05;85.67
64908;BME280;64365;-1.756;110.040;2023-02-22T02:36:18;101413.28;;;7.98;85.66
64908;BME280;64365;-1.756;110.040;2023-02-22T02:38:53;101422.56;;;8.04;86.10
64908;BME280;64365;-1.756;110.040;2023-02-22T02:41:24;101418.59;;;8.10;86.63
64908;BME280;64365;-1.756;110.040;2023-02-22T02:43:54;101417.28;;;8.04;85.16
64908;BME280;64365;-1.756;110.040;2023-02-22T02:46:28;101411.31;;;8.07;84.46
64908;BME280;64365;-1.756;110.040;2023-02-22T02:49:02;101402.28;;;8.08;85.25
64908;BME280;64365;-1.756;110.040;2023-02-22T02:51:33;101400.94;;;8.14;84.78
64908;BME280;64365;-1.756;110.040;2023-02-22T02:54:02;101404.94;;;8.08;84.41
64908;BME280;64365;-1.756;110.040;2023-02-22T02:56:29;101400.28;;;8.05;84.99
64908;BME280;64365;-1.756;110.040;2023-02-22T02:58:56;101405.34;;;8.10;85.16
64908;BME280;64365;-1.756;110.040;2023-02-22T03:01:43;101394.09;;;8.13;85.99
64908;BME280;64365;-1.756;110.040;2023-02-22T03:04:29;101404.91;;;8.20;85.75
64908;BME280;64365;-1.756;110.040;2023-02-22T03:07:26;101394.75;;;8.22;87.56
64908;BME280;64365;-1.756;110.040;2023-02-22T03:10:02;101394.09;;;8.25;86.88
64908;BME280;64365;-1.756;110.040;2023-02-22T03:12:40;101398.06;;;8.19;85.83
64908;BME280;64365;-1.756;110.040;2023-02-22T03:15:26;101390.34;;;8.14;84.51
64908;BME280;64365;-1.756;110.040;2023-02-22T03:18:01;101387.28;;;8.12;84.64
64908;BME280;64365;-1.756;110.040;2023-02-22T03:20:40;101383.75;;;8.08;83.44
64908;BME280;64365;-1.756;110.040;2023-02-22T03:23:15;101384.06;;;7.94;83.42
64908;BME280;64365;-1.756;110.040;2023-02-22T03:25:50;101373.03;;;7.92;83.95
64908;BME280;64365;-1.756;110.040;2023-02-22T03:28:20;101373.72;;;7.89;84.59
64908;BME280;64365;-1.756;110.040;2023-02-22T03:30:53;101380.31;;;7.83;84.82
64908;BME280;64365;-1.756;110.040;2023-02-22T03:33:25;101376.44;;;7.80;85.01
64908;BME280;64365;-1.756;110.040;2023-02-22T03:36:03;101372.25;;;7.79;84.89
64908;BME280;64365;-1.756;110.040;2023-02-22T03:38:35;101371.81;;;7.77;84.56
64908;BME280;64365;-1.756;110.040;2023-02-22T03:41:03;101368.97;;;7.70;84.21
64908;BME280;64365;-1.756;110.040;2023-02-22T03:43:35;101368.72;;;7.63;83.53
64908;BME280;64365;-1.756;110.040;2023-02-22T03:46:05;101361.50;;;7.51;84.16
64908;BME280;64365;-1.756;110.040;2023-02-22T03:48:37;101356.13;;;7.47;84.06
64908;BME280;64365;-1.756;110.040;2023-02-22T03:51:10;101358.44;;;7.49;85.32
64908;BME280;64365;-1.756;110.040;2023-02-22T03:53:40;101357.69;;;7.48;85.18
64908;BME280;64365;-1.756;110.040;2023-02-22T03:56:11;101357.44;;;7.53;84.98
64908;BME280;64365;-1.756;110.040;2023-02-22T03:58:40;101348.75;;;7.53;84.17
64908;BME280;64365;-1.756;110.040;2023-02-22T04:01:10;101339.50;;;7.59;84.10
64908;BME280;64365;-1.756;110.040;2023-02-22T04:03:37;101345.78;;;7.54;84.27
64908;BME280;64365;-1.756;110.040;2023-02-22T04:06:05;101328.69;;;7.52;84.02
64908;BME280;64365;-1.756;110.040;2023-02-22T04:08:33;101331.13;;;7.57;85.08
64908;BME280;64365;-1.756;110.040;2023-02-22T04:10:59;101338.28;;;7.56;84.75
64908;BME280;64365;-1.756;110.040;2023-02-22T04:13:26;101333.63;;;7.53;84.74
64908;BME280;64365;-1.756;110.040;2023-02-22T04:15:53;101326.56;;;7.45;84.24
64908;BME280;64365;-1.756;110.040;2023-02-22T04:18:20;101330.97;;;7.41;84.07
64908;BME280;64365;-1.756;110.040;2023-02-22T04:20:46;101332.75;;;7.37;84.28
64908;BME280;64365;-1.756;110.040;2023-02-22T04:23:13;101330.19;;;7.28;84.47
64908;BME280;64365;-1.756;110.040;2023-02-22T04:25:42;101322.13;;;7.12;84.39
64908;BME280;64365;-1.756;110.040;2023-02-22T04:28:09;101324.75;;;7.12;85.64
64908;BME280;64365;-1.756;110.040;2023-02-22T04:30:36;101322.34;;;7.19;85.37
64908;BME280;64365;-1.756;110.040;2023-02-22T04:33:02;101313.66;;;7.19;86.53
64908;BME280;64365;-1.756;110.040;2023-02-22T04:35:29;101311.09;;;7.22;86.05
64908;BME280;64365;-1.756;110.040;2023-02-22T04:37:55;101305.59;;;7.15;85.45
64908;BME280;64365;-1.756;110.040;2023-02-22T04:40:22;101300.97;;;7.12;85.52
64908;BME280;64365;-1.756;110.040;2023-02-22T04:42:50;101305.78;;;7.10;86.28
64908;BME280;64365;-1.756;110.040;2023-02-22T04:45:17;101298.00;;;7.14;86.04
64908;BME280;64365;-1.756;110.040;2023-02-22T04:47:43;101297.22;;;7.13;86.06
64908;BME280;64365;-1.756;110.040;2023-02-22T04:50:10;101294.78;;;7.08;86.18
64908;BME280;64365;-1.756;110.040;2023-02-22T04:52:37;101290.16;;;7.05;87.03
64908;BME280;64365;-1.756;110.040;2023-02-22T04:55:05;101283.75;;;7.06;86.92
64908;BME280;64365;-1.756;110.040;2023-02-22T04:57:32;101283.13;;;7.09;86.45
64908;BME280;64365;-1.756;110.040;2023-02-22T05:00:00;101281.78;;;7.03;86.60
64908;BME280;64365;-1.756;110.040;2023-02-22T05:02:26;101273.28;;;6.97;86.41
64908;BME280;64365;-1.756;110.040;2023-02-22T05:04:53;101286.56;;;6.88;86.72
64908;BME280;64365;-1.756;110.040;2023-02-22T05:07:20;101287.22;;;6.85;86.97
64908;BME280;64365;-1.756;110.040;2023-02-22T05:09:47;101280.44;;;6.97;87.22
64908;BME280;64365;-1.756;110.040;2023-02-22T05:12:13;101275.59;;;6.99;87.71
64908;BME280;64365;-1.756;110.040;2023-02-22T05:14:40;101262.59;;;6.94;87.31
64908;BME280;64365;-1.756;110.040;2023-02-22T05:17:10;101268.56;;;7.03;88.16
64908;BME280;64365;-1.756;110.040;2023-02-22T05:19:36;101268.34;;;7.08;88.00
64908;BME280;64365;-1.756;110.040;2023-02-22T05:22:03;101271.53;;;7.01;87.31
64908;BME280;64365;-1.756;110.040;2023-02-22T05:24:30;101257.75;;;6.96;87.92
64908;BME280;64365;-1.756;110.040;2023-02-22T05:26:56;101251.69;;;6.95;88.15
64908;BME280;64365;-1.756;110.040;2023-02-22T05:29:23;101247.53;;;6.94;87.95
64908;BME280;64365;-1.756;110.040;2023-02-22T05:31:49;101256.97;;;6.95;88.47
64908;BME280;64365;-1.756;110.040;2023-02-22T05:34:17;101246.66;;;7.02;88.12
64908;BME280;64365;-1.756;110.040;2023-02-22T05:36:44;101250.94;;;6.95;87.73
64908;BME280;64365;-1.756;110.040;2023-02-22T05:39:11;101250.25;;;6.85;88.14
64908;BME280;64365;-1.756;110.040;2023-02-22T05:41:38;101239.00;;;6.88;87.85
64908;BME280;64365;-1.756;110.040;2023-02-22T05:44:05;101229.22;;;6.89;88.18
64908;BME280;64365;-1.756;110.040;2023-02-22T05:46:31;101236.91;;;6.82;88.52
64908;BME280;64365;-1.756;110.040;2023-02-22T05:48:58;101247.72;;;6.89;89.24
64908;BME280;64365;-1.756;110.040;2023-02-22T05:51:26;101246.06;;;6.97;88.71
64908;BME280;64365;-1.756;110.040;2023-02-22T05:53:53;101249.34;;;6.81;88.68
64908;BME280;64365;-1.756;110.040;2023-02-22T05:56:21;101247.47;;;6.82;88.93
64908;BME280;64365;-1.756;110.040;2023-02-22T05:58:48;101239.44;;;6.78;88.56
64908;BME280;64365;-1.756;110.040;2023-02-22T06:01:15;101236.47;;;6.80;88.12
64908;BME280;64365;-1.756;110.040;2023-02-22T06:03:42;101234.03;;;6.74;88.99
64908;BME280;64365;-1.756;110.040;2023-02-22T06:06:11;101235.69;;;6.79;89.43
64908;BME280;64365;-1.756;110.040;2023-02-22T06:08:39;101237.13;;;6.77;89.01
64908;BME280;64365;-1.756;110.040;2023-02-22T06:11:06;101219.47;;;6.68;88.73
64908;BME280;64365;-1.756;110.040;2023-02-22T06:13:33;101223.47;;;6.74;89.12
64908;BME280;64365;-1.756;110.040;2023-02-22T06:16:00;101219.16;;;6.70;89.31
64908;BME280;64365;-1.756;110.040;2023-02-22T06:18:27;101214.13;;;6.77;90.38
64908;BME280;64365;-1.756;110.040;2023-02-22T06:20:55;101211.53;;;6.68;91.48
64908;BME280;64365;-1.756;110.040;2023-02-22T06:23:21;101210.81;;;6.80;91.44
64908;BME280;64365;-1.756;110.040;2023-02-22T06:25:49;101214.53;;;6.67;91.35
64908;BME280;64365;-1.756;110.040;2023-02-22T06:28:16;101225.78;;;6.76;90.97
64908;BME280;64365;-1.756;110.040;2023-02-22T06:30:43;101228.09;;;6.78;90.82
64908;BME280;64365;-1.756;110.040;2023-02-22T06:33:10;101227.69;;;6.88;91.59
64908;BME280;64365;-1.756;110.040;2023-02-22T06:35:37;101219.84;;;6.79;90.69
64908;BME280;64365;-1.756;110.040;2023-02-22T06:38:03;101222.94;;;6.81;90.79
64908;BME280;64365;-1.756;110.040;2023-02-22T06:40:30;101225.13;;;6.79;90.91
64908;BME280;64365;-1.756;110.040;2023-02-22T06:42:58;101229.75;;;6.82;91.49
64908;BME280;64365;-1.756;110.040;2023-02-22T06:45:25;101209.50;;;6.74;91.69
64908;BME280;64365;-1.756;110.040;2023-02-22T06:47:51;101223.94;;;6.89;90.92
64908;BME280;64365;-1.756;110.040;2023-02-22T06:50:21;101211.06;;;6.87;90.76
64908;BME280;64365;-1.756;110.040;2023-02-22T06:52:48;101219.72;;;6.76;91.03
64908;BME280;64365;-1.756;110.040;2023-02-22T06:55:19;101208.63;;;6.82;92.40
64908;BME280;64365;-1.756;110.040;2023-02-22T06:57:45;101211.97;;;6.91;92.16
64908;BME280;64365;-1.756;110.040;2023-02-22T07:00:16;101213.72;;;6.87;92.03
64908;BME280;64365;-1.756;110.040;2023-02-22T07:02:43;101210.19;;;6.83;91.81
64908;BME280;64365;-1.756;110.040;2023-02-22T07:05:10;101222.94;;;6.81;92.27
64908;BME280;64365;-1.756;110.040;2023-02-22T07:07:38;101217.19;;;6.79;91.79
64908;BME280;64365;-1.756;110.040;2023-02-22T07:10:06;101222.03;;;6.77;91.64
64908;BME280;64365;-1.756;110.040;2023-02-22T07:12:33;101214.69;;;6.83;93.42
64908;BME280;64365;-1.756;110.040;2023-02-22T07:14:59;101212.16;;;6.86;92.23
64908;BME280;64365;-1.756;110.040;2023-02-22T07:17:27;101208.63;;;6.82;93.31
64908;BME280;64365;-1.756;110.040;2023-02-22T07:19:54;101207.56;;;6.96;92.75
64908;BME280;64365;-1.756;110.040;2023-02-22T07:22:21;101207.88;;;6.94;92.04
64908;BME280;64365;-1.756;110.040;2023-02-22T07:24:47;101210.63;;;6.85;92.84
64908;BME280;64365;-1.756;110.040;2023-02-22T07:27:14;101212.72;;;6.92;93.49
64908;BME280;64365;-1.756;110.040;2023-02-22T07:29:42;101205.34;;;6.98;93.57
64908;BME280;64365;-1.756;110.040;2023-02-22T07:32:09;101213.28;;;7.10;94.36
64908;BME280;64365;-1.756;110.040;2023-02-22T07:34:37;101212.31;;;7.27;92.82
64908;BME280;64365;-1.756;110.040;2023-02-22T07:37:03;101216.19;;;7.30;92.58
64908;BME280;64365;-1.756;110.040;2023-02-22T07:39:30;101220.34;;;7.18;92.28
64908;BME280;64365;-1.756;110.040;2023-02-22T07:41:57;101219.47;;;7.14;92.86
64908;BME280;64365;-1.756;110.040;2023-02-22T07:44:24;101224.78;;;7.27;92.52
64908;BME280;64365;-1.756;110.040;2023-02-22T07:46:51;101220.59;;;7.25;92.25
64908;BME280;64365;-1.756;110.040;2023-02-22T07:49:18;101215.09;;;7.31;91.81
64908;BME280;64365;-1.756;110.040;2023-02-22T07:51:45;101215.50;;;7.20;91.15
64908;BME280;64365;-1.756;110.040;2023-02-22T07:54:12;101206.47;;;7.21;91.21
64908;BME280;64365;-1.756;110.040;2023-02-22T07:56:43;101208.25;;;7.17;91.96
64908;BME280;64365;-1.756;110.040;2023-02-22T07:59:10;101216.81;;;7.14;91.84
64908;BME280;64365;-1.756;110.040;2023-02-22T08:01:37;101229.59;;;7.24;93.66
64908;BME280;64365;-1.756;110.040;2023-02-22T08:04:04;101228.19;;;7.39;93.04
64908;BME280;64365;-1.756;110.040;2023-02-22T08:06:31;101224.31;;;7.37;92.36
64908;BME280;64365;-1.756;110.040;2023-02-22T08:08:59;101227.84;;;7.41;91.98
64908;BME280;64365;-1.756;110.040;2023-02-22T08:11:25;101221.69;;;7.37;91.67
64908;BME280;64365;-1.756;110.040;2023-02-22T08:13:52;101222.34;;;7.21;92.95
64908;BME280;64365;-1.756;110.040;2023-02-22T08:16:21;101224.31;;;7.37;92.43
64908;BME280;64365;-1.756;110.040;2023-02-22T08:18:48;101240.97;;;7.37;91.93
64908;BME280;64365;-1.756;110.040;2023-02-22T08:21:15;101240.72;;;7.42;93.13
64908;BME280;64365;-1.756;110.040;2023-02-22T08:23:42;101223.00;;;7.55;92.96
64908;BME280;64365;-1.756;110.040;2023-02-22T08:26:10;101215.50;;;7.57;91.50
64908;BME280;64365;-1.756;110.040;2023-02-22T08:28:40;101221.34;;;7.63;91.41
64908;BME280;64365;-1.756;110.040;2023-02-22T08:31:06;101216.28;;;7.58;91.39
64908;BME280;64365;-1.756;110.040;2023-02-22T08:33:33;101218.78;;;7.67;91.62
64908;BME280;64365;-1.756;110.040;2023-02-22T08:35:59;101220.16;;;7.61;91.58
64908;BME280;64365;-1.756;110.040;2023-02-22T08:38:29;101215.06;;;7.68;91.83
64908;BME280;64365;-1.756;110.040;2023-02-22T08:40:56;101212.63;;;7.75;91.65
64908;BME280;64365;-1.756;110.040;2023-02-22T08:43:24;101226.50;;;7.84;91.82
64908;BME280;64365;-1.756;110.040;2023-02-22T08:45:51;101227.03;;;7.90;91.31
64908;BME280;64365;-1.756;110.040;2023-02-22T08:48:18;101224.94;;;7.96;90.49
64908;BME280;64365;-1.756;110.040;2023-02-22T08:50:44;101225.59;;;7.92;90.56
64908;BME280;64365;-1.756;110.040;2023-02-22T08:53:12;101223.41;;;7.95;89.41
64908;BME280;64365;-1.756;110.040;2023-02-22T08:55:40;101218.84;;;7.95;89.05
64908;BME280;64365;-1.756;110.040;2023-02-22T08:58:07;101217.75;;;7.96;89.88
64908;BME280;64365;-1.756;110.040;2023-02-22T09:00:37;101209.06;;;7.96;89.89
64908;BME280;64365;-1.756;110.040;2023-02-22T09:03:05;101202.19;;;8.07;89.89
64908;BME280;64365;-1.756;110.040;2023-02-22T09:05:32;101196.66;;;8.12;89.69
64908;BME280;64365;-1.756;110.040;2023-02-22T09:07:59;101199.94;;;8.21;89.15
64908;BME280;64365;-1.756;110.040;2023-02-22T09:10:28;101200.13;;;8.29;89.75
64908;BME280;64365;-1.756;110.040;2023-02-22T09:12:55;101201.97;;;8.40;88.98
64908;BME280;64365;-1.756;110.040;2023-02-22T09:15:22;101190.69;;;8.43;87.59
64908;BME280;64365;-1.756;110.040;2023-02-22T09:17:52;101195.22;;;8.43;86.82
64908;BME280;64365;-1.756;110.040;2023-02-22T09:20:20;101188.56;;;8.49;85.94
64908;BME280;64365;-1.756;110.040;2023-02-22T09:22:48;101191.44;;;8.44;87.12
64908;BME280;64365;-1.756;110.040;2023-02-22T09:25:15;101178.47;;;8.39;86.90
64908;BME280;64365;-1.756;110.040;2023-02-22T09:27:46;101179.69;;;8.57;87.00
64908;BME280;64365;-1.756;110.040;2023-02-22T09:30:20;101179.47;;;8.63;86.33
64908;BME280;64365;-1.756;110.040;2023-02-22T09:32:48;101175.78;;;8.67;86.27
64908;BME280;64365;-1.756;110.040;2023-02-22T09:35:16;101175.13;;;8.70;85.69
64908;BME280;64365;-1.756;110.040;2023-02-22T09:37:42;101161.69;;;8.79;86.38
64908;BME280;64365;-1.756;110.040;2023-02-22T09:40:15;101162.28;;;8.88;86.06
64908;BME280;64365;-1.756;110.040;2023-02-22T09:42:55;101154.19;;;8.81;84.58
64908;BME280;64365;-1.756;110.040;2023-02-22T09:45:27;101159.63;;;8.88;84.62
64908;BME280;64365;-1.756;110.040;2023-02-22T09:47:59;101157.34;;;8.87;85.15
64908;BME280;64365;-1.756;110.040;2023-02-22T09:50:32;101164.25;;;8.91;85.12
64908;BME280;64365;-1.756;110.040;2023-02-22T09:53:04;101156.03;;;8.81;83.97
64908;BME280;64365;-1.756;110.040;2023-02-22T09:55:34;101149.47;;;8.90;84.44
64908;BME280;64365;-1.756;110.040;2023-02-22T09:58:06;101155.09;;;9.05;84.68
64908;BME280;64365;-1.756;110.040;2023-02-22T10:00:36;101146.28;;;9.01;83.97
64908;BME280;64365;-1.756;110.040;2023-02-22T10:03:16;101142.63;;;8.89;82.95
64908;BME280;64365;-1.756;110.040;2023-02-22T10:05:51;101132.69;;;9.02;83.38
64908;BME280;64365;-1.756;110.040;2023-02-22T10:08:22;101132.53;;;9.11;84.16
64908;BME280;64365;-1.756;110.040;2023-02-22T10:10:58;101133.75;;;9.33;84.57
64908;BME280;64365;-1.756;110.040;2023-02-22T10:13:35;101135.81;;;9.59;83.97
64908;BME280;64365;-1.756;110.040;2023-02-22T10:16:09;101142.69;;;9.80;83.27
64908;BME280;64365;-1.756;110.040;2023-02-22T10:18:48;101134.66;;;9.96;81.22
64908;BME280;64365;-1.756;110.040;2023-02-22T10:21:34;101130.88;;;9.77;80.75
64908;BME280;64365;-1.756;110.040;2023-02-22T10:24:09;101135.81;;;9.79;81.58
64908;BME280;64365;-1.756;110.040;2023-02-22T10:26:41;101132.63;;;9.89;81.26
64908;BME280;64365;-1.756;110.040;2023-02-22T10:29:13;101147.00;;;9.88;80.74
64908;BME280;64365;-1.756;110.040;2023-02-22T10:31:44;101138.69;;;9.90;79.84
64908;BME280;64365;-1.756;110.040;2023-02-22T10:34:15;101142.63;;;9.96;80.26
64908;BME280;64365;-1.756;110.040;2023-02-22T10:36:45;101137.84;;;10.05;79.60
64908;BME280;64365;-1.756;110.040;2023-02-22T10:39:21;101134.41;;;10.05;79.87
64908;BME280;64365;-1.756;110.040;2023-02-22T10:41:50;101141.03;;;10.15;79.05
64908;BME280;64365;-1.756;110.040;2023-02-22T10:44:18;101132.41;;;10.18;78.70
64908;BME280;64365;-1.756;110.040;2023-02-22T10:46:45;101141.59;;;10.24;78.13
64908;BME280;64365;-1.756;110.040;2023-02-22T10:49:18;101135.88;;;10.22;78.19
64908;BME280;64365;-1.756;110.040;2023-02-22T10:51:56;101136.88;;;10.14;79.10
64908;BME280;64365;-1.756;110.040;2023-02-22T10:54:27;101138.53;;;10.22;78.43
64908;BME280;64365;-1.756;110.040;2023-02-22T10:56:56;101131.88;;;10.32;78.78
64908;BME280;64365;-1.756;110.040;2023-02-22T10:59:30;101124.88;;;10.43;78.44
64908;BME280;64365;-1.756;110.040;2023-02-22T11:01:59;101126.94;;;10.53;77.95
64908;BME280;64365;-1.756;110.040;2023-02-22T11:04:26;101117.44;;;10.52;77.27
64908;BME280;64365;-1.756;110.040;2023-02-22T11:07:18;101102.31;;;10.56;75.92
64908;BME280;64365;-1.756;110.040;2023-02-22T11:09:47;101103.91;;;10.61;75.66
64908;BME280;64365;-1.756;110.040;2023-02-22T11:12:18;101096.72;;;10.61;76.21
64908;BME280;64365;-1.756;110.040;2023-02-22T11:14:45;101111.91;;;10.61;75.86
64908;BME280;64365;-1.756;110.040;2023-02-22T11:17:18;101131.03;;;10.70;76.64
64908;BME280;64365;-1.756;110.040;2023-02-22T11:19:50;101125.28;;;10.68;75.89
64908;BME280;64365;-1.756;110.040;2023-02-22T11:22:22;101133.44;;;10.79;75.20
64908;BME280;64365;-1.756;110.040;2023-02-22T11:24:51;101134.31;;;10.87;75.81
64908;BME280;64365;-1.756;110.040;2023-02-22T11:27:30;101125.63;;;10.90;76.26
64908;BME280;64365;-1.756;110.040;2023-02-22T11:30:09;101133.69;;;10.97;74.99
64908;BME280;64365;-1.756;110.040;2023-02-22T11:32:42;101134.47;;;10.98;73.87
64908;BME280;64365;-1.756;110.040;2023-02-22T11:35:19;101129.84;;;10.94;74.16
64908;BME280;64365;-1.756;110.040;2023-02-22T11:37:47;101125.34;;;10.99;74.02
64908;BME280;64365;-1.756;110.040;2023-02-22T11:40:15;101127.63;;;10.97;73.27
64908;BME280;64365;-1.756;110.040;2023-02-22T11:42:47;101122.59;;;10.91;73.84
64908;BME280;64365;-1.756;110.040;2023-02-22T11:45:16;101118.53;;;10.98;74.20
64908;BME280;64365;-1.756;110.040;2023-02-22T11:47:50;101121.19;;;10.98;72.70
64908;BME280;64365;-1.756;110.040;2023-02-22T11:50:23;101116.63;;;10.98;73.39
64908;BME280;64365;-1.756;110.040;2023-02-22T11:53:16;101111.72;;;11.00;73.14
64908;BME280;64365;-1.756;110.040;2023-02-22T11:55:54;101101.03;;;10.97;72.99
64908;BME280;64365;-1.756;110.040;2023-02-22T11:58:34;101107.16;;;11.01;74.25
64908;BME280;64365;-1.756;110.040;2023-02-22T12:01:10;101099.53;;;10.99;73.38
64908;BME280;64365;-1.756;110.040;2023-02-22T12:04:20;101103.63;;;10.93;73.33
64908;BME280;64365;-1.756;110.040;2023-02-22T12:06:55;101091.41;;;10.88;73.30
64908;BME280;64365;-1.756;110.040;2023-02-22T12:09:33;101077.41;;;10.91;75.44
64908;BME280;64365;-1.756;110.040;2023-02-22T12:12:10;101075.19;;;10.97;75.05
64908;BME280;64365;-1.756;110.040;2023-02-22T12:14:48;101080.28;;;11.09;74.20
64908;BME280;64365;-1.756;110.040;2023-02-22T12:17:21;101087.44;;;11.02;74.48
64908;BME280;64365;-1.756;110.040;2023-02-22T12:19:54;101075.66;;;11.03;74.45
64908;BME280;64365;-1.756;110.040;2023-02-22T12:22:27;101069.25;;;11.07;75.61
64908;BME280;64365;-1.756;110.040;2023-02-22T12:25:02;101067.91;;;11.21;74.94
64908;BME280;64365;-1.756;110.040;2023-02-22T12:27:34;101073.75;;;11.34;74.26
64908;BME280;64365;-1.756;110.040;2023-02-22T12:30:06;101070.78;;;11.39;73.42
64908;BME280;64365;-1.756;110.040;2023-02-22T12:32:39;101069.72;;;11.43;73.92
64908;BME280;64365;-1.756;110.040;2023-02-22T12:35:11;101062.81;;;11.39;72.47
64908;BME280;64365;-1.756;110.040;2023-02-22T12:37:50;101053.81;;;11.51;72.47
64908;BME280;64365;-1.756;110.040;2023-02-22T12:40:26;101057.72;;;11.57;72.80
64908;BME280;64365;-1.756;110.040;2023-02-22T12:42:59;101064.22;;;11.63;73.33
64908;BME280;64365;-1.756;110.040;2023-02-22T12:45:35;101055.59;;;11.73;74.90
64908;BME280;64365;-1.756;110.040;2023-02-22T12:48:20;101053.75;;;11.81;73.75
64908;BME280;64365;-1.756;110.040;2023-02-22T12:50:54;101059.88;;;11.85;73.35
64908;BME280;64365;-1.756;110.040;2023-02-22T12:53:27;101055.78;;;11.91;73.96